Time;durP1;ratioP1;P1;durP2;ratioP2;P2;SDS_P1;SDS_P2;PMS_P1;PMS_P2;Temp;Humidity;BMP_temperature;BMP_pressure;BME280_temperature;BME280_humidity;BME280_pressure;Samples;Min_cycle;Max_cycle;Signal;HPM_P1;HPM_P2
2021/11/22 00:01:58;;;;;;;17.17;6.78;;;;;;;;;;5010216;28;20453;-66
2021/11/22 00:04:26;;;;;;;18.88;7.00;;;;;;;;;;5028781;28;20060;-65
2021/11/22 00:06:55;;;;;;;21.90;6.43;;;;;;;;;;5029340;28;20523;-65
2021/11/22 00:09:23;;;;;;;17.48;6.95;;;;;;;;;;5020555;28;20136;-65
2021/11/22 00:11:51;;;;;;;19.80;6.97;;;;;;;;;;5026039;28;20055;-66
2021/11/22 00:14:20;;;;;;;18.25;6.70;;;;;;;;;;5008979;28;20046;-66
2021/11/22 00:16:49;;;;;;;15.93;5.68;;;;;;;;;;5005848;28;20053;-65
2021/11/22 00:19:18;;;;;;;21.70;7.28;;;;;;;;;;5008922;28;20477;-66
2021/11/22 00:21:46;;;;;;;18.52;7.07;;;;;;;;;;5005940;28;20054;-65
2021/11/22 00:24:14;;;;;;;23.30;6.78;;;;;;;;;;5003916;28;20144;-66
2021/11/22 00:26:43;;;;;;;15.32;5.80;;;;;;;;;;5007665;28;20072;-65
2021/11/22 00:29:11;;;;;;;18.55;6.38;;;;;;;;;;5009760;28;20054;-66
2021/11/22 00:31:41;;;;;;;17.35;7.00;;;;;;;;;;4996003;28;20052;-67
2021/11/22 00:34:10;;;;;;;23.50;7.03;;;;;;;;;;5000759;28;20500;-67
2021/11/22 00:36:39;;;;;;;22.25;6.97;;;;;;;;;;5004926;28;20790;-67
2021/11/22 00:39:07;;;;;;;21.67;7.50;;;;;;;;;;5009850;28;20145;-65
2021/11/22 00:41:35;;;;;;;16.52;6.20;;;;;;;;;;5007709;28;20164;-66
2021/11/22 00:44:04;;;;;;;19.00;6.40;;;;;;;;;;4998819;28;20569;-66
2021/11/22 00:46:33;;;;;;;23.52;6.38;;;;;;;;;;4994054;28;20038;-67
2021/11/22 00:49:01;;;;;;;19.10;6.97;;;;;;;;;;4999996;28;20069;-66
2021/11/22 00:51:31;;;;;;;22.20;7.00;;;;;;;;;;5008295;28;20050;-65
2021/11/22 00:53:59;;;;;;;16.17;6.20;;;;;;;;;;5009298;28;20141;-67
2021/11/22 00:56:29;;;;;;;19.88;6.82;;;;;;;;;;5005412;28;20397;-66
2021/11/22 00:58:58;;;;;;;18.33;6.70;;;;;;;;;;5005715;28;20085;-67
2021/11/22 01:01:26;;;;;;;19.55;6.88;;;;;;;;;;5000184;28;20553;-65
2021/11/22 01:03:55;;;;;;;18.55;5.55;;;;;;;;;;5024776;28;20053;-65
2021/11/22 01:06:23;;;;;;;19.40;6.55;;;;;;;;;;5026994;28;20049;-66
2021/11/22 01:08:53;;;;;;;15.63;5.53;;;;;;;;;;5028115;28;20056;-65
2021/11/22 01:11:21;;;;;;;16.52;5.80;;;;;;;;;;5023163;28;20233;-66
2021/11/22 01:13:50;;;;;;;19.45;6.35;;;;;;;;;;5008293;28;20112;-65
2021/11/22 01:16:18;;;;;;;15.77;5.68;;;;;;;;;;4999139;28;20057;-65
2021/11/22 01:18:46;;;;;;;17.08;6.72;;;;;;;;;;5002418;28;20104;-66
2021/11/22 01:21:15;;;;;;;20.02;6.18;;;;;;;;;;5005174;28;20089;-66
2021/11/22 01:23:43;;;;;;;20.27;6.00;;;;;;;;;;5008850;28;20079;-66
2021/11/22 01:26:13;;;;;;;18.60;6.60;;;;;;;;;;5000475;28;20054;-66
2021/11/22 01:28:56;;;;;;;15.65;6.25;;;;;;;;;;2135442;28;10024703;-65
2021/11/22 01:31:24;;;;;;;19.10;7.15;;;;;;;;;;3630271;28;10001293;-66
2021/11/22 01:33:53;;;;;;;17.50;7.63;;;;;;;;;;5018996;28;20045;-65
2021/11/22 01:36:21;;;;;;;14.93;6.57;;;;;;;;;;5015705;28;20046;-68
2021/11/22 01:38:50;;;;;;;20.33;8.23;;;;;;;;;;5022042;28;20079;-65
2021/11/22 01:41:21;;;;;;;20.55;7.57;;;;;;;;;;5023561;28;20049;-65
2021/11/22 01:43:49;;;;;;;15.90;6.18;;;;;;;;;;5003573;28;20058;-65
2021/11/22 01:46:18;;;;;;;18.27;7.05;;;;;;;;;;5001744;28;20129;-67
2021/11/22 01:48:47;;;;;;;19.88;6.80;;;;;;;;;;5004094;28;20682;-69
2021/11/22 01:51:15;;;;;;;20.23;7.32;;;;;;;;;;5005851;28;20480;-68
2021/11/22 01:53:44;;;;;;;18.98;6.97;;;;;;;;;;5003258;28;20128;-65
2021/11/22 01:56:19;;;;;;;19.77;7.35;;;;;;;;;;4999212;28;20068;-66
2021/11/22 01:58:48;;;;;;;17.05;6.45;;;;;;;;;;5004044;28;20504;-66
2021/11/22 02:01:17;;;;;;;23.00;8.05;;;;;;;;;;5002044;28;20056;-66
2021/11/22 02:03:46;;;;;;;15.95;7.18;;;;;;;;;;5000740;28;20065;-65
2021/11/22 02:06:14;;;;;;;18.10;7.55;;;;;;;;;;4998458;28;20045;-66
2021/11/22 02:08:44;;;;;;;22.05;8.00;;;;;;;;;;4997476;28;20433;-66
2021/11/22 02:11:13;;;;;;;18.00;6.40;;;;;;;;;;4990767;28;20042;-66
2021/11/22 02:13:43;;;;;;;21.08;7.53;;;;;;;;;;4998799;28;20058;-66
2021/11/22 02:16:13;;;;;;;23.98;8.60;;;;;;;;;;5003164;28;20049;-65
2021/11/22 02:18:43;;;;;;;18.20;6.85;;;;;;;;;;5000713;28;20053;-66
2021/11/22 02:21:14;;;;;;;21.73;8.15;;;;;;;;;;5002490;28;20233;-65
2021/11/22 02:23:44;;;;;;;19.80;7.43;;;;;;;;;;5005929;28;20049;-65
2021/11/22 02:26:12;;;;;;;17.42;7.05;;;;;;;;;;5003045;28;20116;-65
2021/11/22 02:28:41;;;;;;;25.95;7.88;;;;;;;;;;4996973;28;20046;-67
2021/11/22 02:31:09;;;;;;;22.65;7.95;;;;;;;;;;5006236;28;20056;-67
2021/11/22 02:33:38;;;;;;;20.05;7.03;;;;;;;;;;5009576;28;20049;-66
2021/11/22 02:36:06;;;;;;;22.38;7.88;;;;;;;;;;5010306;28;20052;-66
2021/11/22 02:38:37;;;;;;;24.85;8.40;;;;;;;;;;5021572;28;20046;-65
2021/11/22 02:41:06;;;;;;;20.90;7.47;;;;;;;;;;5022077;28;20080;-65
2021/11/22 02:43:38;;;;;;;18.25;7.05;;;;;;;;;;5013155;28;20049;-66
2021/11/22 02:46:07;;;;;;;22.73;7.70;;;;;;;;;;5010902;28;20048;-65
2021/11/22 02:48:36;;;;;;;20.92;7.72;;;;;;;;;;5008577;28;20080;-66
2021/11/22 02:51:05;;;;;;;20.92;7.35;;;;;;;;;;4998764;28;20046;-65
2021/11/22 02:53:34;;;;;;;20.67;6.85;;;;;;;;;;5008081;28;20042;-65
2021/11/22 02:56:06;;;;;;;18.33;7.40;;;;;;;;;;5005554;28;20394;-65
2021/11/22 02:58:35;;;;;;;20.27;7.03;;;;;;;;;;5005429;28;20048;-66
2021/11/22 03:01:04;;;;;;;20.30;7.60;;;;;;;;;;5004844;28;20070;-67
2021/11/22 03:03:34;;;;;;;22.67;7.68;;;;;;;;;;4996805;28;20449;-67
2021/11/22 03:06:10;;;;;;;20.60;7.13;;;;;;;;;;5008623;28;20043;-66
2021/11/22 03:08:39;;;;;;;18.20;7.15;;;;;;;;;;4998987;28;20045;-66
2021/11/22 03:11:09;;;;;;;16.60;6.45;;;;;;;;;;5007454;28;20123;-65
2021/11/22 03:13:38;;;;;;;17.55;7.15;;;;;;;;;;5008919;28;20132;-66
2021/11/22 03:16:07;;;;;;;18.52;6.78;;;;;;;;;;5030878;28;20079;-66
2021/11/22 03:18:35;;;;;;;21.48;7.15;;;;;;;;;;5017423;28;20053;-65
2021/11/22 03:21:04;;;;;;;20.08;7.00;;;;;;;;;;5021705;28;20065;-66
2021/11/22 03:23:33;;;;;;;15.23;6.55;;;;;;;;;;5017652;28;20381;-66
2021/11/22 03:26:01;;;;;;;22.58;7.22;;;;;;;;;;5006956;28;20049;-65
2021/11/22 03:28:31;;;;;;;16.90;7.30;;;;;;;;;;4998785;28;20568;-68
2021/11/22 03:31:00;;;;;;;20.92;8.10;;;;;;;;;;4995067;28;20436;-65
2021/11/22 03:33:29;;;;;;;20.38;8.00;;;;;;;;;;5002376;28;20563;-66
2021/11/22 03:35:57;;;;;;;20.13;7.60;;;;;;;;;;4998149;28;20133;-66
2021/11/22 03:38:28;;;;;;;21.35;8.73;;;;;;;;;;5007956;28;20163;-65
2021/11/22 03:40:57;;;;;;;25.17;8.93;;;;;;;;;;5005190;28;20136;-65
2021/11/22 03:43:29;;;;;;;27.30;8.18;;;;;;;;;;5003639;28;20050;-65
2021/11/22 03:45:59;;;;;;;25.50;8.40;;;;;;;;;;5006443;28;20446;-66
2021/11/22 03:48:27;;;;;;;20.42;7.85;;;;;;;;;;5001005;28;20087;-65
2021/11/22 03:50:56;;;;;;;24.75;9.70;;;;;;;;;;5006069;28;20552;-65
2021/11/22 03:53:24;;;;;;;18.25;6.97;;;;;;;;;;5014674;28;20077;-66
2021/11/22 03:55:52;;;;;;;22.83;7.95;;;;;;;;;;5030298;28;20049;-65
2021/11/22 03:58:21;;;;;;;22.08;8.40;;;;;;;;;;5021614;28;20573;-65
2021/11/22 04:00:49;;;;;;;23.67;7.97;;;;;;;;;;5013160;28;20461;-65
2021/11/22 04:03:19;;;;;;;25.73;8.82;;;;;;;;;;5016309;28;20046;-65
2021/11/22 04:05:48;;;;;;;24.50;8.10;;;;;;;;;;4993758;28;20053;-66
2021/11/22 04:08:16;;;;;;;18.10;7.82;;;;;;;;;;5002372;28;20133;-66
2021/11/22 04:10:45;;;;;;;21.45;8.25;;;;;;;;;;4998299;28;20046;-68
2021/11/22 04:13:13;;;;;;;20.15;8.10;;;;;;;;;;5012537;28;20471;-66
2021/11/22 04:15:42;;;;;;;22.42;7.95;;;;;;;;;;5014473;28;20141;-66
2021/11/22 04:18:10;;;;;;;24.08;8.60;;;;;;;;;;5025945;28;20128;-67
2021/11/22 04:20:40;;;;;;;20.98;8.25;;;;;;;;;;5028556;28;20048;-68
2021/11/22 04:23:10;;;;;;;22.77;8.45;;;;;;;;;;5009140;28;20058;-68
2021/11/22 04:25:38;;;;;;;24.20;9.02;;;;;;;;;;5004592;28;20394;-66
2021/11/22 04:28:07;;;;;;;25.45;9.00;;;;;;;;;;4995170;28;20050;-66
2021/11/22 04:30:36;;;;;;;23.85;8.30;;;;;;;;;;4999095;28;20046;-66
2021/11/22 04:33:04;;;;;;;22.67;8.40;;;;;;;;;;5005170;28;20053;-65
2021/11/22 04:35:33;;;;;;;23.98;8.95;;;;;;;;;;5005909;28;20052;-66
2021/11/22 04:38:03;;;;;;;21.92;8.35;;;;;;;;;;5003552;28;20056;-65
2021/11/22 04:40:31;;;;;;;22.77;7.75;;;;;;;;;;5004063;28;20054;-66
2021/11/22 04:43:00;;;;;;;21.55;8.85;;;;;;;;;;5018113;28;20095;-65
2021/11/22 04:45:29;;;;;;;25.38;9.05;;;;;;;;;;5018569;28;20440;-66
2021/11/22 04:47:59;;;;;;;21.98;8.10;;;;;;;;;;5018819;28;20297;-65
2021/11/22 04:50:27;;;;;;;23.58;8.85;;;;;;;;;;5018009;28;20050;-66
2021/11/22 04:52:56;;;;;;;28.45;8.82;;;;;;;;;;5027437;28;20512;-65
2021/11/22 04:55:26;;;;;;;24.65;8.23;;;;;;;;;;5024494;28;20045;-66
2021/11/22 04:57:54;;;;;;;20.13;8.23;;;;;;;;;;5019744;28;20037;-65
2021/11/22 05:00:23;;;;;;;25.25;9.20;;;;;;;;;;5026302;28;20072;-65
2021/11/22 05:02:52;;;;;;;20.90;8.38;;;;;;;;;;5016879;28;20049;-65
2021/11/22 05:05:21;;;;;;;25.20;8.73;;;;;;;;;;5022286;28;20409;-66
2021/11/22 05:07:50;;;;;;;23.48;8.85;;;;;;;;;;5020404;28;20555;-66
2021/11/22 05:10:34;;;;;;;23.95;8.50;;;;;;;;;;5020596;28;20493;-66
2021/11/22 05:13:04;;;;;;;23.90;8.73;;;;;;;;;;5017516;28;20486;-65
2021/11/22 05:15:33;;;;;;;29.83;9.25;;;;;;;;;;4995517;28;20413;-66
2021/11/22 05:18:01;;;;;;;25.45;8.70;;;;;;;;;;5006672;28;20490;-65
2021/11/22 05:20:30;;;;;;;17.55;6.65;;;;;;;;;;5004300;28;20546;-65
2021/11/22 05:22:58;;;;;;;20.80;8.50;;;;;;;;;;5005212;28;20129;-66
2021/11/22 05:25:26;;;;;;;24.88;8.73;;;;;;;;;;5025879;28;20056;-66
2021/11/22 05:27:56;;;;;;;19.63;7.65;;;;;;;;;;5011461;28;20081;-66
2021/11/22 05:30:26;;;;;;;24.75;9.10;;;;;;;;;;5016205;28;20643;-65
2021/11/22 05:32:54;;;;;;;26.63;9.10;;;;;;;;;;5013210;28;20139;-65
2021/11/22 05:35:23;;;;;;;25.80;8.88;;;;;;;;;;4999453;28;20050;-65
2021/11/22 05:37:51;;;;;;;25.80;8.63;;;;;;;;;;5009424;28;20058;-66
2021/11/22 05:40:19;;;;;;;20.52;8.40;;;;;;;;;;5000135;28;20069;-65
2021/11/22 05:42:48;;;;;;;24.00;9.00;;;;;;;;;;5002229;28;20058;-65
2021/11/22 05:45:18;;;;;;;22.08;7.15;;;;;;;;;;4997054;28;20480;-65
2021/11/22 05:47:47;;;;;;;25.48;8.32;;;;;;;;;;5008270;28;20590;-65
2021/11/22 05:50:16;;;;;;;22.90;8.40;;;;;;;;;;5008036;28;20112;-64
2021/11/22 05:52:49;;;;;;;21.05;7.10;;;;;;;;;;4996496;28;20041;-66
2021/11/22 05:55:26;;;;;;;23.40;8.85;;;;;;;;;;5005615;28;20136;-65
2021/11/22 05:57:55;;;;;;;23.17;8.48;;;;;;;;;;5004061;28;20041;-64
2021/11/22 06:00:25;;;;;;;22.98;7.60;;;;;;;;;;5008273;28;20593;-65
2021/11/22 06:02:53;;;;;;;22.52;8.05;;;;;;;;;;4999553;28;20041;-64
2021/11/22 06:05:22;;;;;;;18.75;7.43;;;;;;;;;;5027584;28;20041;-64
2021/11/22 06:07:51;;;;;;;21.33;7.95;;;;;;;;;;5012109;28;20208;-64
2021/11/22 06:10:20;;;;;;;27.20;8.27;;;;;;;;;;5015624;28;20369;-64
2021/11/22 06:12:48;;;;;;;18.38;7.57;;;;;;;;;;5013438;28;20485;-65
2021/11/22 06:15:17;;;;;;;22.05;7.78;;;;;;;;;;5002818;28;20050;-64
2021/11/22 06:17:47;;;;;;;18.70;7.63;;;;;;;;;;5003717;28;20046;-64
2021/11/22 06:20:15;;;;;;;19.17;6.63;;;;;;;;;;5002081;28;20056;-65
2021/11/22 06:22:44;;;;;;;20.38;7.03;;;;;;;;;;5006769;28;20523;-65
2021/11/22 06:25:12;;;;;;;18.10;7.85;;;;;;;;;;5007938;28;20064;-65
2021/11/22 06:27:40;;;;;;;23.83;7.90;;;;;;;;;;4989348;28;20070;-65
2021/11/22 06:30:09;;;;;;;21.58;8.00;;;;;;;;;;4999896;28;20656;-66
2021/11/22 06:32:38;;;;;;;20.67;7.90;;;;;;;;;;5000506;28;20095;-66
2021/11/22 06:35:08;;;;;;;22.48;7.55;;;;;;;;;;5022850;28;20493;-66
2021/11/22 06:37:36;;;;;;;24.92;7.80;;;;;;;;;;5028361;28;20056;-65
2021/11/22 06:40:05;;;;;;;23.17;8.48;;;;;;;;;;5025187;28;20064;-66
2021/11/22 06:42:34;;;;;;;19.92;7.50;;;;;;;;;;5013667;28;20137;-66
2021/11/22 06:45:03;;;;;;;24.75;7.55;;;;;;;;;;5008307;28;20057;-65
2021/11/22 06:47:32;;;;;;;18.08;7.93;;;;;;;;;;5013086;28;20408;-66
2021/11/22 06:50:01;;;;;;;23.75;7.93;;;;;;;;;;5003887;28;20148;-65
2021/11/22 06:52:31;;;;;;;22.10;7.53;;;;;;;;;;5005804;28;20349;-65
2021/11/22 06:55:00;;;;;;;22.80;7.80;;;;;;;;;;5009391;28;20045;-65
2021/11/22 06:57:29;;;;;;;24.30;7.90;;;;;;;;;;5002273;28;20082;-65
2021/11/22 06:59:57;;;;;;;19.63;7.60;;;;;;;;;;5010184;28;20046;-65
2021/11/22 07:02:26;;;;;;;24.40;7.97;;;;;;;;;;5009443;28;20091;-65
2021/11/22 07:04:55;;;;;;;24.90;8.02;;;;;;;;;;5019572;28;20059;-66
2021/11/22 07:07:25;;;;;;;20.83;7.97;;;;;;;;;;5020051;28;20077;-65
2021/11/22 07:09:55;;;;;;;23.13;8.25;;;;;;;;;;5024138;28;20061;-66
2021/11/22 07:12:23;;;;;;;25.08;8.57;;;;;;;;;;5014598;28;20089;-66
2021/11/22 07:14:53;;;;;;;27.70;8.80;;;;;;;;;;5003149;28;20057;-66
2021/11/22 07:17:22;;;;;;;29.67;9.18;;;;;;;;;;5006182;28;20056;-66
2021/11/22 07:19:53;;;;;;;25.40;8.95;;;;;;;;;;5006847;28;20360;-65
2021/11/22 07:22:21;;;;;;;26.05;9.65;;;;;;;;;;5000596;28;20146;-65
2021/11/22 07:24:50;;;;;;;25.02;9.18;;;;;;;;;;5004652;28;20060;-66
2021/11/22 07:27:24;;;;;;;24.67;8.43;;;;;;;;;;5004829;28;20498;-65
2021/11/22 07:29:53;;;;;;;25.60;9.15;;;;;;;;;;5001739;28;20058;-67
2021/11/22 07:32:22;;;;;;;26.02;8.52;;;;;;;;;;5007284;28;20128;-65
2021/11/22 07:34:50;;;;;;;26.25;8.85;;;;;;;;;;5000469;28;20495;-66
2021/11/22 07:37:20;;;;;;;25.08;8.60;;;;;;;;;;5003293;28;20085;-66
2021/11/22 07:39:48;;;;;;;27.25;8.27;;;;;;;;;;4999311;28;20123;-65
2021/11/22 07:42:18;;;;;;;25.95;9.07;;;;;;;;;;5011634;28;20088;-69
2021/11/22 07:44:49;;;;;;;27.23;9.77;;;;;;;;;;5008863;28;20412;-66
2021/11/22 07:47:18;;;;;;;28.58;9.65;;;;;;;;;;5000796;28;20093;-66
2021/11/22 07:49:47;;;;;;;26.58;9.45;;;;;;;;;;5000660;28;20131;-65
2021/11/22 07:52:18;;;;;;;23.60;8.88;;;;;;;;;;5012794;28;20045;-65
2021/11/22 07:54:48;;;;;;;23.05;8.70;;;;;;;;;;5006849;28;20436;-65
2021/11/22 07:57:16;;;;;;;20.98;8.98;;;;;;;;;;5002017;28;20077;-66
2021/11/22 07:59:45;;;;;;;28.88;8.70;;;;;;;;;;5002591;28;20141;-65
2021/11/22 08:02:15;;;;;;;19.90;7.20;;;;;;;;;;5011720;28;20076;-65
2021/11/22 08:04:44;;;;;;;19.45;7.53;;;;;;;;;;5002668;28;20054;-66
2021/11/22 08:07:16;;;;;;;25.63;8.65;;;;;;;;;;4996500;28;20775;-69
2021/11/22 08:09:55;;;;;;;27.33;9.32;;;;;;;;;;5002725;28;20093;-65
2021/11/22 08:12:26;;;;;;;21.30;8.10;;;;;;;;;;5021573;28;20088;-67
2021/11/22 08:14:56;;;;;;;25.05;7.47;;;;;;;;;;5022332;28;20144;-65
2021/11/22 08:17:26;;;;;;;20.00;7.75;;;;;;;;;;5041352;28;20045;-65
2021/11/22 08:19:55;;;;;;;20.73;7.47;;;;;;;;;;5035034;28;20108;-67
2021/11/22 08:22:24;;;;;;;20.10;7.13;;;;;;;;;;5028986;28;20480;-65
2021/11/22 08:24:53;;;;;;;24.08;8.00;;;;;;;;;;5054352;28;20052;-65
2021/11/22 08:27:22;;;;;;;21.05;7.80;;;;;;;;;;5054929;28;20171;-65
2021/11/22 08:29:51;;;;;;;20.23;8.20;;;;;;;;;;5037089;28;20049;-65
2021/11/22 08:32:20;;;;;;;20.67;8.20;;;;;;;;;;5043248;28;20049;-69
2021/11/22 08:34:50;;;;;;;23.20;7.45;;;;;;;;;;5025159;28;20153;-66
2021/11/22 08:37:19;;;;;;;20.13;6.75;;;;;;;;;;5028754;28;20493;-65
2021/11/22 08:39:47;;;;;;;23.77;7.45;;;;;;;;;;5027121;28;20593;-65
2021/11/22 08:42:17;;;;;;;22.77;7.80;;;;;;;;;;5032586;28;20155;-65
2021/11/22 08:44:46;;;;;;;16.77;7.40;;;;;;;;;;5061170;28;20072;-67
2021/11/22 08:47:15;;;;;;;20.95;7.40;;;;;;;;;;5046562;28;20093;-65
2021/11/22 08:49:50;;;;;;;19.90;6.93;;;;;;;;;;5059705;28;20048;-65
2021/11/22 08:52:19;;;;;;;18.65;6.95;;;;;;;;;;5046989;28;20049;-65
2021/11/22 08:54:48;;;;;;;19.42;7.32;;;;;;;;;;5030165;28;20038;-67
2021/11/22 08:57:16;;;;;;;23.10;8.57;;;;;;;;;;5027670;28;20052;-67
2021/11/22 08:59:46;;;;;;;22.77;7.70;;;;;;;;;;5020621;28;20052;-65
2021/11/22 09:02:15;;;;;;;18.77;7.53;;;;;;;;;;5033764;28;20046;-65
2021/11/22 09:04:44;;;;;;;24.02;8.68;;;;;;;;;;5022540;28;20041;-65
2021/11/22 09:07:14;;;;;;;16.70;6.75;;;;;;;;;;5044957;28;20111;-66
2021/11/22 09:09:42;;;;;;;24.38;8.45;;;;;;;;;;5045477;28;20084;-65
2021/11/22 09:12:11;;;;;;;25.13;8.13;;;;;;;;;;5029198;28;20127;-68
2021/11/22 09:14:40;;;;;;;25.45;8.70;;;;;;;;;;5025486;28;20045;-66
2021/11/22 09:17:08;;;;;;;19.90;7.82;;;;;;;;;;5035787;28;20125;-66
2021/11/22 09:19:38;;;;;;;25.63;8.55;;;;;;;;;;5023987;28;20073;-66
2021/11/22 09:22:11;;;;;;;22.08;7.53;;;;;;;;;;5027157;28;20507;-66
2021/11/22 09:24:42;;;;;;;21.77;7.70;;;;;;;;;;5036796;28;20049;-66
2021/11/22 09:27:11;;;;;;;22.20;8.82;;;;;;;;;;5035798;28;20507;-68
2021/11/22 09:29:40;;;;;;;26.80;9.27;;;;;;;;;;5043657;28;20627;-66
2021/11/22 09:32:09;;;;;;;22.77;7.38;;;;;;;;;;5044082;28;20172;-67
2021/11/22 09:34:39;;;;;;;22.98;8.13;;;;;;;;;;5034314;28;20056;-65
2021/11/22 09:37:08;;;;;;;26.42;9.02;;;;;;;;;;5043030;28;20049;-65
2021/11/22 09:39:37;;;;;;;25.38;8.40;;;;;;;;;;5049356;28;20060;-65
2021/11/22 09:42:08;;;;;;;29.40;8.70;;;;;;;;;;5054827;28;20051;-65
2021/11/22 09:44:37;;;;;;;27.77;9.18;;;;;;;;;;5063370;28;20083;-65
2021/11/22 09:47:05;;;;;;;26.75;8.75;;;;;;;;;;5063123;28;20057;-67
2021/11/22 09:49:35;;;;;;;21.75;7.57;;;;;;;;;;5060315;28;20048;-64
2021/11/22 09:52:05;;;;;;;24.05;7.97;;;;;;;;;;5068047;28;20048;-66
2021/11/22 09:54:34;;;;;;;24.75;8.25;;;;;;;;;;5063969;28;20048;-65
2021/11/22 09:57:03;;;;;;;24.02;8.63;;;;;;;;;;5068040;28;20048;-65
2021/11/22 09:59:34;;;;;;;23.02;7.65;;;;;;;;;;5073164;28;20042;-65
2021/11/22 10:02:03;;;;;;;22.33;7.68;;;;;;;;;;5068245;28;20052;-65
2021/11/22 10:04:33;;;;;;;23.17;7.95;;;;;;;;;;5070645;28;20203;-65
2021/11/22 10:07:03;;;;;;;25.05;8.20;;;;;;;;;;5082063;28;20135;-68
2021/11/22 10:09:39;;;;;;;28.10;9.75;;;;;;;;;;5065633;28;20044;-65
2021/11/22 10:12:09;;;;;;;21.35;7.47;;;;;;;;;;5045070;28;20069;-65
2021/11/22 10:14:40;;;;;;;20.55;9.20;;;;;;;;;;5069161;28;20040;-65
2021/11/22 10:17:26;;;;;;;25.20;7.88;;;;;;;;;;5060905;28;20087;-65
2021/11/22 10:20:11;;;;;;;19.42;6.68;;;;;;;;;;5059132;28;20059;-65
2021/11/22 10:22:43;;;;;;;21.80;7.87;;;;;;;;;;5076395;28;20583;-65
2021/11/22 10:25:19;;;;;;;22.80;7.70;;;;;;;;;;5062626;28;20044;-66
2021/11/22 10:27:48;;;;;;;19.25;6.53;;;;;;;;;;5055084;28;20045;-66
2021/11/22 10:30:26;;;;;;;21.42;7.50;;;;;;;;;;5066656;28;20052;-65
2021/11/22 10:32:56;;;;;;;22.48;7.45;;;;;;;;;;5069289;28;20127;-65
2021/11/22 10:35:25;;;;;;;21.30;6.88;;;;;;;;;;5062828;28;20388;-68
2021/11/22 10:38:00;;;;;;;23.73;7.78;;;;;;;;;;5061122;28;20198;-65
2021/11/22 10:40:30;;;;;;;22.73;7.70;;;;;;;;;;5055982;28;20128;-66
2021/11/22 10:42:59;;;;;;;24.23;8.00;;;;;;;;;;5059954;28;20056;-65
2021/11/22 10:45:32;;;;;;;23.60;8.45;;;;;;;;;;5061814;28;20059;-67
2021/11/22 10:48:11;;;;;;;19.00;7.55;;;;;;;;;;5062520;28;20536;-66
2021/11/22 10:50:48;;;;;;;21.05;7.32;;;;;;;;;;5066721;28;20502;-65
2021/11/22 10:53:17;;;;;;;23.23;9.05;;;;;;;;;;5061492;28;20052;-67
2021/11/22 10:55:48;;;;;;;21.52;7.85;;;;;;;;;;5067610;28;20084;-65
2021/11/22 10:58:37;;;;;;;22.17;8.02;;;;;;;;;;5073792;28;20047;-65
2021/11/22 11:01:22;;;;;;;19.52;6.57;;;;;;;;;;5087735;28;20048;-65
2021/11/22 11:03:58;;;;;;;21.67;7.60;;;;;;;;;;5059870;28;20045;-65
2021/11/22 11:06:37;;;;;;;22.98;7.32;;;;;;;;;;5060201;28;20040;-66
2021/11/22 11:09:07;;;;;;;22.65;7.57;;;;;;;;;;5065530;28;20144;-66
2021/11/22 11:11:36;;;;;;;22.00;7.13;;;;;;;;;;5071055;28;20055;-66
2021/11/22 11:14:06;;;;;;;26.63;8.52;;;;;;;;;;5069956;28;20052;-65
2021/11/22 11:16:38;;;;;;;24.08;7.95;;;;;;;;;;5072273;28;20051;-65
2021/11/22 11:19:07;;;;;;;20.65;6.80;;;;;;;;;;5078567;28;20152;-65
2021/11/22 11:21:37;;;;;;;23.02;7.03;;;;;;;;;;5073518;28;20049;-65
2021/11/22 11:24:07;;;;;;;20.23;8.55;;;;;;;;;;5064637;28;20079;-65
2021/11/22 11:26:37;;;;;;;19.02;6.97;;;;;;;;;;5066520;28;20041;-65
2021/11/22 11:29:06;;;;;;;22.70;8.38;;;;;;;;;;5072633;28;20044;-65
2021/11/22 11:31:37;;;;;;;18.05;7.07;;;;;;;;;;5075160;28;20040;-65
2021/11/22 11:34:07;;;;;;;26.42;8.10;;;;;;;;;;5059347;28;20056;-66
2021/11/22 11:37:09;;;;;;;21.42;7.75;;;;;;;;;;5065345;28;20421;-65
2021/11/22 11:39:56;;;;;;;14.70;6.50;;;;;;;;;;4991505;28;20054;-65
2021/11/22 11:42:50;;;;;;;19.33;7.45;;;;;;;;;;4988483;28;20526;-66
2021/11/22 11:45:20;;;;;;;21.40;7.07;;;;;;;;;;5049392;28;20079;-66
2021/11/22 11:47:53;;;;;;;22.73;6.90;;;;;;;;;;5072298;28;20079;-65
2021/11/22 11:50:25;;;;;;;18.25;7.00;;;;;;;;;;5072090;28;20045;-66
2021/11/22 11:52:58;;;;;;;23.13;7.50;;;;;;;;;;5061723;28;20123;-66
2021/11/22 11:55:27;;;;;;;22.27;7.65;;;;;;;;;;5067473;28;20057;-66
2021/11/22 11:58:14;;;;;;;22.58;8.18;;;;;;;;;;5067319;28;20048;-66
2021/11/22 12:00:51;;;;;;;17.77;6.82;;;;;;;;;;5065898;28;20044;-65
2021/11/22 12:03:22;;;;;;;22.05;7.32;;;;;;;;;;5067686;28;20559;-66
2021/11/22 12:05:51;;;;;;;18.73;6.80;;;;;;;;;;5064141;28;20048;-66
2021/11/22 12:08:21;;;;;;;17.88;6.63;;;;;;;;;;5059509;28;20135;-66
2021/11/22 12:10:49;;;;;;;20.70;7.45;;;;;;;;;;5066022;28;20052;-66
2021/11/22 12:13:18;;;;;;;17.13;6.50;;;;;;;;;;5065200;28;20091;-66
2021/11/22 12:15:47;;;;;;;18.48;7.05;;;;;;;;;;5069697;28;20110;-66
2021/11/22 12:18:39;;;;;;;18.88;6.78;;;;;;;;;;5065319;28;20147;-66
2021/11/22 12:21:09;;;;;;;20.35;7.53;;;;;;;;;;5069646;28;20420;-68
2021/11/22 12:23:43;;;;;;;14.68;5.90;;;;;;;;;;5073806;28;20041;-66
2021/11/22 12:26:14;;;;;;;14.30;5.57;;;;;;;;;;5061959;28;20053;-68
2021/11/22 12:28:47;;;;;;;18.65;7.05;;;;;;;;;;5055677;28;20056;-67
2021/11/22 12:31:23;;;;;;;13.93;5.53;;;;;;;;;;5063580;28;20052;-66
2021/11/22 12:33:57;;;;;;;19.55;6.40;;;;;;;;;;5067267;28;20675;-66
2021/11/22 12:36:31;;;;;;;20.80;7.60;;;;;;;;;;5064354;28;20079;-66
2021/11/22 12:39:05;;;;;;;17.40;6.60;;;;;;;;;;5065387;28;20095;-66
2021/11/22 12:41:49;;;;;;;20.67;7.50;;;;;;;;;;5067903;28;20378;-67
2021/11/22 12:44:19;;;;;;;17.63;6.93;;;;;;;;;;5054394;28;20041;-66
2021/11/22 12:46:50;;;;;;;13.93;6.00;;;;;;;;;;5058213;28;20947;-67
2021/11/22 12:49:31;;;;;;;16.65;6.57;;;;;;;;;;5071076;28;20048;-66
2021/11/22 12:52:15;;;;;;;13.57;5.55;;;;;;;;;;5059161;28;20068;-66
2021/11/22 12:54:48;;;;;;;13.95;5.75;;;;;;;;;;5070172;28;20045;-67
2021/11/22 12:57:20;;;;;;;17.75;7.05;;;;;;;;;;5066074;28;20071;-66
2021/11/22 13:00:04;;;;;;;14.73;5.95;;;;;;;;;;5066498;28;20048;-66
2021/11/22 13:02:46;;;;;;;18.50;6.28;;;;;;;;;;5063908;28;20131;-66
2021/11/22 13:05:48;;;;;;;14.02;6.10;;;;;;;;;;5056883;28;20052;-65
2021/11/22 13:08:35;;;;;;;19.00;6.45;;;;;;;;;;5069238;28;20052;-66
2021/11/22 13:11:06;;;;;;;13.35;5.25;;;;;;;;;;5055191;28;20053;-66
2021/11/22 13:13:42;;;;;;;17.50;5.38;;;;;;;;;;5062153;28;20049;-66
2021/11/22 13:16:14;;;;;;;12.90;5.22;;;;;;;;;;5060845;28;20083;-66
2021/11/22 13:18:44;;;;;;;14.50;5.75;;;;;;;;;;5063663;28;20043;-66
2021/11/22 13:21:15;;;;;;;11.73;5.70;;;;;;;;;;5068730;28;20103;-65
2021/11/22 13:23:44;;;;;;;13.68;5.43;;;;;;;;;;5057499;28;20095;-66
2021/11/22 13:26:15;;;;;;;17.98;5.88;;;;;;;;;;5066743;28;20064;-65
2021/11/22 13:28:46;;;;;;;15.10;5.85;;;;;;;;;;5067141;28;20056;-66
2021/11/22 13:31:15;;;;;;;14.90;6.10;;;;;;;;;;5063427;28;20067;-65
2021/11/22 13:33:44;;;;;;;17.13;5.85;;;;;;;;;;5060678;28;20051;-66
2021/11/22 13:36:16;;;;;;;14.90;5.90;;;;;;;;;;5060726;28;20040;-66
2021/11/22 13:38:45;;;;;;;15.68;6.20;;;;;;;;;;5058183;28;20045;-66
2021/11/22 13:41:16;;;;;;;12.07;5.50;;;;;;;;;;5061410;28;20547;-65
2021/11/22 13:43:45;;;;;;;13.35;5.57;;;;;;;;;;5057323;28;20040;-66
2021/11/22 13:46:15;;;;;;;14.15;5.63;;;;;;;;;;5063427;28;20144;-66
2021/11/22 13:48:47;;;;;;;12.90;5.00;;;;;;;;;;5067169;28;20049;-66
2021/11/22 13:51:18;;;;;;;12.60;5.47;;;;;;;;;;5065510;28;20059;-66
2021/11/22 13:53:47;;;;;;;15.90;5.50;;;;;;;;;;5061818;28;20060;-66
2021/11/22 13:56:27;;;;;;;11.82;5.10;;;;;;;;;;5061997;28;20136;-66
2021/11/22 13:58:56;;;;;;;11.90;6.00;;;;;;;;;;5054724;28;20057;-66
2021/11/22 14:01:26;;;;;;;13.35;5.63;;;;;;;;;;5058528;28;20052;-66
2021/11/22 14:03:59;;;;;;;12.90;5.03;;;;;;;;;;5067722;28;20056;-66
2021/11/22 14:06:32;;;;;;;18.65;6.20;;;;;;;;;;5064903;28;20040;-66
2021/11/22 14:09:01;;;;;;;12.98;5.70;;;;;;;;;;5061466;28;20151;-66
2021/11/22 14:11:30;;;;;;;13.65;5.40;;;;;;;;;;5059461;28;20048;-66
2021/11/22 14:14:01;;;;;;;12.32;5.10;;;;;;;;;;5063987;28;20143;-66
2021/11/22 14:16:31;;;;;;;14.45;5.95;;;;;;;;;;5064116;28;20045;-66
2021/11/22 14:19:00;;;;;;;12.18;4.93;;;;;;;;;;5059647;28;20519;-66
2021/11/22 14:21:33;;;;;;;13.52;5.28;;;;;;;;;;5053778;28;20108;-66
2021/11/22 14:24:09;;;;;;;12.40;5.95;;;;;;;;;;5047655;28;20041;-67
2021/11/22 14:26:38;;;;;;;13.13;5.22;;;;;;;;;;5061267;28;20416;-66
2021/11/22 14:29:11;;;;;;;12.75;5.35;;;;;;;;;;5063522;28;20052;-66
2021/11/22 14:31:44;;;;;;;13.07;5.00;;;;;;;;;;5062158;28;20904;-67
2021/11/22 14:34:16;;;;;;;14.10;5.60;;;;;;;;;;5050355;28;20052;-67
2021/11/22 14:36:48;;;;;;;12.13;5.00;;;;;;;;;;5064490;28;20076;-66
2021/11/22 14:39:17;;;;;;;11.40;5.13;;;;;;;;;;5058321;28;20423;-67
2021/11/22 14:41:46;;;;;;;12.52;4.80;;;;;;;;;;5065463;28;20079;-66
2021/11/22 14:44:16;;;;;;;10.00;4.15;;;;;;;;;;5062219;28;20056;-66
2021/11/22 14:46:48;;;;;;;10.60;4.80;;;;;;;;;;5066340;28;20049;-67
2021/11/22 14:49:37;;;;;;;10.35;4.50;;;;;;;;;;5065950;28;20060;-66